In Rescue
 
Open Full Screen Window  High Contrast Mode
Wind Gusting 00 knots
06
October 25, 2021 2:55 PM CDT
Weather Information
Wind Direction
  030 °
Wind Speed
  06 kt (7 mph)
Wind Gust
  00 kt (0 mph)
Altimeter
30.13 in
Visibility
10 SM
Temperature
11° C
52° F
Dewpoint
-03° C
27° F
Humidity
38%
1hr Rain Fall
00.00 in.
24hr Rain Fall
00.00 in.
Sky Condition
Clear
VFR

METAR KSGS 251955Z AUTO 03006KT 10SM CLR 11/M03 A3013 RMK AO2 T01111028

FAA Disclaimer: The data displayed is for advisory purposes only and is not to be used for flight planning or operations.